Time;durP1;ratioP1;P1;durP2;ratioP2;P2;SDS_P1;SDS_P2;PMS_P1;PMS_P2;Temp;Humidity;BMP_temperature;BMP_pressure;BME280_temperature;BME280_humidity;BME280_pressure;Samples;Min_cycle;Max_cycle;Signal;HPM_P1;HPM_P2
2024/03/13 00:01:12;;;;;;;2.45;1.08;;;;;;;9.33;100.00;100679.47;5009978;28;20053;-76
2024/03/13 00:03:38;;;;;;;2.28;1.17;;;;;;;9.34;100.00;100681.16;5004587;28;20091;-76
2024/03/13 00:06:04;;;;;;;3.20;1.25;;;;;;;9.36;100.00;100687.22;5004153;28;20506;-76
2024/03/13 00:08:29;;;;;;;3.42;1.10;;;;;;;9.36;100.00;100687.22;4999323;28;20108;-76
2024/03/13 00:10:54;;;;;;;2.47;1.02;;;;;;;9.38;100.00;100682.25;4984110;28;20045;-76
2024/03/13 00:13:23;;;;;;;5.38;1.20;;;;;;;9.39;100.00;100689.47;5004443;28;20422;-76
2024/03/13 00:15:49;;;;;;;2.83;1.10;;;;;;;9.40;100.00;100680.03;4984708;28;20029;-76
2024/03/13 00:18:14;;;;;;;2.83;1.20;;;;;;;9.40;100.00;100686.38;4978891;28;20036;-76
2024/03/13 00:20:41;;;;;;;3.03;1.08;;;;;;;9.42;100.00;100683.34;4980875;28;20031;-76
2024/03/13 00:23:09;;;;;;;3.60;1.23;;;;;;;9.43;100.00;100687.78;4983443;28;20092;-77
2024/03/13 00:25:35;;;;;;;3.83;1.10;;;;;;;9.43;100.00;100698.84;4953033;28;20062;-76
2024/03/13 00:28:01;;;;;;;2.58;1.20;;;;;;;9.43;100.00;100685.00;4971632;28;20049;-77
2024/03/13 00:30:26;;;;;;;2.22;1.20;;;;;;;9.45;100.00;100693.88;4983697;28;20044;-76
2024/03/13 00:32:53;;;;;;;3.22;1.45;;;;;;;9.46;100.00;100695.50;5016267;28;20084;-76
2024/03/13 00:35:20;;;;;;;1.50;1.17;;;;;;;9.47;100.00;100693.56;4987186;28;20065;-76
2024/03/13 00:37:46;;;;;;;3.80;1.10;;;;;;;9.47;100.00;100696.34;4980669;28;20118;-76
2024/03/13 00:40:13;;;;;;;3.30;1.20;;;;;;;9.48;100.00;100692.47;4964050;28;20113;-76
2024/03/13 00:42:39;;;;;;;2.67;1.23;;;;;;;9.49;100.00;100699.66;4996687;28;20466;-76
2024/03/13 00:45:04;;;;;;;2.95;1.42;;;;;;;9.49;100.00;100694.94;4981007;28;20112;-76
2024/03/13 00:47:30;;;;;;;3.40;1.08;;;;;;;9.48;100.00;100698.84;4997933;28;20529;-76
2024/03/13 00:49:55;;;;;;;2.33;0.90;;;;;;;9.48;100.00;100698.84;4996450;28;20474;-76
2024/03/13 00:52:22;;;;;;;2.33;1.20;;;;;;;9.50;100.00;100696.63;4995701;28;20033;-76
2024/03/13 00:54:47;;;;;;;3.33;1.20;;;;;;;9.50;100.00;100685.53;4980052;28;20026;-76
2024/03/13 00:57:13;;;;;;;3.20;1.20;;;;;;;9.51;100.00;100689.97;4996289;28;20034;-76
2024/03/13 00:59:42;;;;;;;5.10;1.20;;;;;;;9.51;100.00;100689.13;4977367;28;20085;-76
2024/03/13 01:02:08;;;;;;;3.13;1.25;;;;;;;9.54;100.00;100692.16;4996154;28;20038;-76
2024/03/13 01:04:34;;;;;;;2.17;1.35;;;;;;;9.53;100.00;100690.53;4995936;28;20034;-77
2024/03/13 01:06:59;;;;;;;1.48;0.93;;;;;;;9.52;100.00;100699.94;4995887;28;20022;-76
2024/03/13 01:09:25;;;;;;;2.53;0.98;;;;;;;9.54;100.00;100691.34;5007996;28;20022;-77
2024/03/13 01:11:52;;;;;;;2.63;1.17;;;;;;;9.54;100.00;100703.25;5009402;28;20084;-76
2024/03/13 01:14:20;;;;;;;1.38;1.02;;;;;;;9.54;100.00;100699.66;4989985;28;20022;-76
2024/03/13 01:16:51;;;;;;;2.28;1.15;;;;;;;9.54;100.00;100708.81;5005317;28;20395;-76
2024/03/13 01:19:19;;;;;;;3.15;1.10;;;;;;;9.54;100.00;100714.34;4989921;28;20026;-76
2024/03/13 01:21:45;;;;;;;1.90;0.95;;;;;;;9.53;100.00;100712.69;4976299;28;20729;-76
2024/03/13 01:24:11;;;;;;;2.28;1.08;;;;;;;9.53;100.00;100707.16;4980261;28;20382;-76
2024/03/13 01:26:36;;;;;;;2.88;1.05;;;;;;;9.53;100.00;100709.94;4956280;28;20026;-76
2024/03/13 01:29:02;;;;;;;3.20;1.20;;;;;;;9.54;100.00;100705.19;4998240;28;20037;-76
2024/03/13 01:31:27;;;;;;;3.20;1.20;;;;;;;9.54;100.00;100708.81;4995573;28;20030;-77
2024/03/13 01:33:52;;;;;;;4.43;1.55;;;;;;;9.55;100.00;100709.63;4979166;28;20035;-76
2024/03/13 01:37:55;;;;;;;1.77;1.00;;;;;;;9.55;100.00;100704.91;5002161;28;20507;-76
2024/03/13 01:39:04;;;;;;;2.05;1.00;;;;;;;9.54;100.00;100708.81;4971611;28;20092;-76
2024/03/13 02:03:13;;;;;;;2.50;1.08;;;;;;;9.58;100.00;100690.50;4980220;28;20652;-76
2024/03/13 02:05:40;;;;;;;1.98;1.00;;;;;;;9.57;100.00;100686.06;4998608;28;20034;-76
2024/03/13 02:08:06;;;;;;;2.53;0.82;;;;;;;9.57;100.00;100688.81;5000284;28;20033;-76
2024/03/13 02:10:32;;;;;;;1.08;0.80;;;;;;;9.56;100.00;100692.72;4973994;28;20034;-76
2024/03/13 02:13:09;;;;;;;2.03;0.95;;;;;;;9.58;100.00;100687.72;5007793;28;20033;-76
2024/03/13 02:15:35;;;;;;;2.95;0.82;;;;;;;9.58;100.00;100687.72;4996122;28;20041;-76
2024/03/13 02:18:00;;;;;;;1.05;0.70;;;;;;;9.59;100.00;100683.84;4978586;28;20034;-77
2024/03/13 02:20:26;;;;;;;2.17;0.88;;;;;;;9.60;100.00;100687.44;4994602;28;20037;-76
2024/03/13 02:23:02;;;;;;;2.88;0.80;;;;;;;9.60;100.00;100679.94;4962636;28;20034;-77
2024/03/13 02:25:31;;;;;;;3.80;0.80;;;;;;;9.60;100.00;100677.16;4994820;28;20034;-76
2024/03/13 02:27:58;;;;;;;2.03;0.90;;;;;;;9.60;100.00;100685.47;4978580;28;20026;-76
2024/03/13 02:30:24;;;;;;;5.38;1.13;;;;;;;9.60;100.00;100685.47;4994537;28;20483;-76
2024/03/13 02:32:50;;;;;;;3.70;0.90;;;;;;;9.59;100.00;100689.38;4959347;28;20053;-76
2024/03/13 02:35:15;;;;;;;1.17;0.68;;;;;;;9.60;100.00;100690.19;4938918;28;20068;-76
2024/03/13 02:37:41;;;;;;;1.48;0.80;;;;;;;9.59;100.00;100686.59;4961872;28;20038;-76
2024/03/13 02:40:09;;;;;;;0.95;0.70;;;;;;;9.59;100.00;100683.84;4994267;28;20026;-76
2024/03/13 02:42:34;;;;;;;2.53;0.73;;;;;;;9.59;100.00;100677.47;4968081;28;20038;-77
2024/03/13 02:45:00;;;;;;;0.80;0.50;;;;;;;9.59;100.00;100677.47;4969005;28;20434;-76
2024/03/13 02:47:25;;;;;;;1.13;0.57;;;;;;;9.59;100.00;100666.38;4945294;28;20045;-76
2024/03/13 02:49:51;;;;;;;2.13;1.00;;;;;;;9.59;100.00;100671.91;4945842;28;20037;-76
2024/03/13 02:52:18;;;;;;;1.38;0.60;;;;;;;9.60;100.00;100665.25;4994028;28;20057;-76
2024/03/13 02:54:43;;;;;;;0.55;0.50;;;;;;;9.59;100.00;100656.09;4961890;28;20032;-76
2024/03/13 02:57:09;;;;;;;2.95;0.60;;;;;;;9.60;100.00;100656.94;4971168;28;20466;-76
2024/03/13 02:59:35;;;;;;;1.23;0.60;;;;;;;9.58;100.00;100657.22;5000724;28;20080;-76
2024/03/13 03:02:00;;;;;;;1.60;0.65;;;;;;;9.58;100.00;100645.28;4974447;28;20050;-76
2024/03/13 03:04:26;;;;;;;2.10;0.60;;;;;;;9.58;100.00;100648.91;4994054;28;20080;-76
2024/03/13 03:06:51;;;;;;;1.52;0.55;;;;;;;9.56;100.00;100642.81;4961896;28;20026;-76
2024/03/13 03:09:17;;;;;;;2.33;0.60;;;;;;;9.58;100.00;100642.50;5005049;28;20033;-76
2024/03/13 03:11:43;;;;;;;3.35;0.68;;;;;;;9.57;100.00;100635.31;4968083;28;20646;-76
2024/03/13 03:14:10;;;;;;;1.70;0.50;;;;;;;9.57;100.00;100640.88;4985826;28;20030;-76
2024/03/13 03:16:35;;;;;;;1.42;0.60;;;;;;;9.58;100.00;100635.03;4976689;28;20030;-77
2024/03/13 03:19:01;;;;;;;1.85;0.57;;;;;;;9.59;100.00;100635.88;4997744;28;20052;-76
2024/03/13 03:21:27;;;;;;;0.85;0.52;;;;;;;9.59;100.00;100627.56;4962568;28;20031;-76
2024/03/13 03:23:53;;;;;;;1.60;0.55;;;;;;;9.59;100.00;100628.38;4974265;28;20474;-76
2024/03/13 03:26:19;;;;;;;2.70;0.75;;;;;;;9.57;100.00;100629.78;4996708;28;20034;-76
2024/03/13 03:28:44;;;;;;;0.73;0.50;;;;;;;9.57;100.00;100632.53;5009781;28;20497;-76
2024/03/13 03:31:10;;;;;;;1.45;0.60;;;;;;;9.58;100.00;100636.97;4971676;28;20026;-76
2024/03/13 03:33:37;;;;;;;0.88;0.60;;;;;;;9.58;100.00;100629.50;4953557;28;20026;-76
2024/03/13 03:36:05;;;;;;;2.53;0.50;;;;;;;9.58;100.00;100634.19;4975034;28;20027;-76
2024/03/13 03:38:32;;;;;;;3.67;0.60;;;;;;;9.57;100.00;100633.38;4992156;28;20042;-76
2024/03/13 03:40:58;;;;;;;0.80;0.50;;;;;;;9.58;100.00;100637.81;4985980;28;20030;-77
2024/03/13 03:43:23;;;;;;;1.30;0.50;;;;;;;9.57;100.00;100636.13;4977919;28;20606;-77
2024/03/13 03:45:50;;;;;;;0.88;0.60;;;;;;;9.57;100.00;100635.31;4981569;28;20097;-77
2024/03/13 03:48:15;;;;;;;2.22;0.60;;;;;;;9.57;100.00;100633.38;5004017;28;20041;-76
2024/03/13 03:50:41;;;;;;;0.50;0.50;;;;;;;9.57;100.00;100630.59;4961820;28;20039;-76
2024/03/13 03:53:07;;;;;;;0.82;0.60;;;;;;;9.56;100.00;100631.72;4958997;28;20035;-76
2024/03/13 03:55:33;;;;;;;2.67;0.60;;;;;;;9.56;100.00;100634.50;5010120;28;20092;-76
2024/03/13 03:57:58;;;;;;;2.58;0.90;;;;;;;9.56;100.00;100636.44;4995525;28;20042;-76
2024/03/13 04:00:23;;;;;;;2.67;0.70;;;;;;;9.56;100.00;100637.25;5005195;28;20656;-76
2024/03/13 04:02:51;;;;;;;0.70;0.52;;;;;;;9.55;100.00;100627.28;5003583;28;20034;-76
2024/03/13 04:05:18;;;;;;;3.80;0.65;;;;;;;9.55;100.00;100634.75;5004404;28;20026;-76
2024/03/13 04:07:43;;;;;;;1.85;0.68;;;;;;;9.55;100.00;100632.81;5003911;28;20034;-76
2024/03/13 04:10:08;;;;;;;2.88;0.73;;;;;;;9.55;100.00;100637.53;5015183;28;20442;-76
2024/03/13 04:12:34;;;;;;;1.88;0.80;;;;;;;9.53;100.00;100635.06;4972465;28;20034;-76
2024/03/13 04:15:02;;;;;;;2.80;1.05;;;;;;;9.52;100.00;100638.94;4981017;28;20093;-77
2024/03/13 04:17:27;;;;;;;2.22;0.65;;;;;;;9.51;100.00;100631.75;4996884;28;20037;-77
2024/03/13 04:19:53;;;;;;;3.05;0.82;;;;;;;9.52;100.00;100627.84;4967712;28;20034;-77
2024/03/13 04:22:19;;;;;;;2.35;0.60;;;;;;;9.52;100.00;100629.78;4984083;28;20028;-77
2024/03/13 04:24:44;;;;;;;4.10;0.90;;;;;;;9.50;100.00;100635.63;4977756;28;20038;-77
2024/03/13 04:27:09;;;;;;;2.03;0.82;;;;;;;9.51;100.00;100640.06;4987596;28;20026;-76
2024/03/13 04:29:35;;;;;;;3.58;0.60;;;;;;;9.50;100.00;100629.25;5010824;28;20475;-76
2024/03/13 04:32:00;;;;;;;2.28;0.80;;;;;;;9.50;100.00;100635.63;5009917;28;20022;-76
2024/03/13 04:34:26;;;;;;;0.80;0.68;;;;;;;9.50;100.00;100634.78;4970911;28;20087;-77
2024/03/13 04:36:51;;;;;;;3.30;0.77;;;;;;;9.50;100.00;100632.00;5002952;28;20475;-76
2024/03/13 04:39:17;;;;;;;3.03;0.73;;;;;;;9.50;100.00;100634.78;4970740;28;20026;-76
2024/03/13 04:41:42;;;;;;;2.08;0.73;;;;;;;9.49;100.00;100625.63;5003313;28;20077;-76
2024/03/13 04:44:09;;;;;;;3.67;1.10;;;;;;;9.48;100.00;100632.31;5011265;28;20022;-76
2024/03/13 04:46:35;;;;;;;1.15;0.60;;;;;;;9.49;100.00;100633.97;4996904;28;20046;-76
2024/03/13 04:49:00;;;;;;;3.28;0.80;;;;;;;9.49;100.00;100633.97;5003993;28;20030;-76
2024/03/13 04:51:26;;;;;;;1.25;0.70;;;;;;;9.49;100.00;100633.97;4986644;28;20418;-76
2024/03/13 04:53:52;;;;;;;2.47;0.98;;;;;;;9.48;100.00;100637.84;4986723;28;20037;-76
2024/03/13 04:56:18;;;;;;;1.95;0.70;;;;;;;9.47;100.00;100638.97;4967114;28;20074;-77
2024/03/13 04:58:44;;;;;;;2.33;0.82;;;;;;;9.47;100.00;100630.66;4970348;28;20041;-76
2024/03/13 05:01:19;;;;;;;3.63;1.10;;;;;;;9.48;100.00;100637.84;4970466;28;20050;-76
2024/03/13 05:03:45;;;;;;;1.48;0.80;;;;;;;9.47;100.00;100640.91;4980382;28;20034;-76
2024/03/13 05:06:10;;;;;;;0.95;0.80;;;;;;;9.47;100.00;100641.75;5010306;28;20040;-76
2024/03/13 05:08:36;;;;;;;1.85;0.77;;;;;;;9.46;100.00;100640.06;4969384;28;20025;-76
2024/03/13 05:11:01;;;;;;;2.75;0.88;;;;;;;9.45;100.00;100638.44;4971162;28;20061;-77
2024/03/13 05:13:27;;;;;;;1.30;0.65;;;;;;;9.46;100.00;100637.31;4999050;28;20434;-76
2024/03/13 05:15:52;;;;;;;2.55;1.05;;;;;;;9.47;100.00;100646.44;4976464;28;20028;-76
2024/03/13 05:18:20;;;;;;;4.72;1.20;;;;;;;9.46;100.00;100631.75;4947285;28;20039;-76
2024/03/13 05:20:46;;;;;;;3.72;1.17;;;;;;;9.44;100.00;100636.75;4985330;28;20037;-76
2024/03/13 05:23:11;;;;;;;4.43;1.08;;;;;;;9.43;100.00;100632.31;4969802;28;20483;-76
2024/03/13 05:25:37;;;;;;;3.75;1.20;;;;;;;9.44;100.00;100628.44;4970316;28;20038;-76
2024/03/13 05:28:03;;;;;;;3.47;0.95;;;;;;;9.44;100.00;100631.19;5001524;28;20025;-76
2024/03/13 05:30:29;;;;;;;4.47;0.93;;;;;;;9.45;100.00;100635.66;4941336;28;20055;-76
2024/03/13 05:32:54;;;;;;;5.57;1.25;;;;;;;9.44;100.00;100631.19;5008813;28;20038;-76
2024/03/13 05:35:20;;;;;;;4.05;1.20;;;;;;;9.43;100.00;100628.72;5008420;28;20034;-77
2024/03/13 05:37:46;;;;;;;2.33;1.20;;;;;;;9.42;100.00;100627.91;4966198;28;20026;-77
2024/03/13 05:40:17;;;;;;;3.63;1.00;;;;;;;9.41;100.00;100631.78;4975742;28;20061;-77
2024/03/13 05:42:43;;;;;;;4.55;1.60;;;;;;;9.41;100.00;100634.53;4963390;28;20553;-76
2024/03/13 05:45:13;;;;;;;8.18;1.30;;;;;;;9.40;100.00;100636.50;4973791;28;20037;-77
2024/03/13 05:47:40;;;;;;;5.07;1.17;;;;;;;9.39;100.00;100629.31;4995540;28;20034;-76
2024/03/13 05:50:07;;;;;;;2.42;1.30;;;;;;;9.38;100.00;100635.94;4995211;28;20109;-76
2024/03/13 05:52:33;;;;;;;5.07;1.55;;;;;;;9.37;100.00;100633.47;4995274;28;20542;-76
2024/03/13 05:54:59;;;;;;;4.40;1.77;;;;;;;9.36;100.00;100635.41;4978918;28;20026;-76
2024/03/13 05:57:24;;;;;;;4.45;1.50;;;;;;;9.35;100.00;100638.44;4994854;28;20110;-76
2024/03/13 05:59:50;;;;;;;2.92;1.40;;;;;;;9.34;100.00;100639.56;4979247;28;20033;-77
2024/03/13 06:02:16;;;;;;;4.68;1.50;;;;;;;9.31;100.00;100640.97;5014524;28;20555;-76
2024/03/13 06:04:42;;;;;;;4.75;1.35;;;;;;;9.29;100.00;100636.81;4996291;28;20034;-76
2024/03/13 06:07:07;;;;;;;5.78;2.15;;;;;;;9.29;100.00;100639.59;4994849;28;20103;-76
2024/03/13 06:09:33;;;;;;;4.50;1.70;;;;;;;9.27;100.00;100639.03;4976462;28;20041;-76
2024/03/13 06:11:59;;;;;;;4.05;1.50;;;;;;;9.23;100.00;100638.78;4978564;28;20030;-76
2024/03/13 06:14:24;;;;;;;8.05;2.17;;;;;;;9.23;100.00;100635.19;4989469;28;20531;-76
2024/03/13 06:16:50;;;;;;;9.98;2.00;;;;;;;9.23;100.00;100635.19;5007446;28;20025;-76
2024/03/13 06:19:15;;;;;;;5.35;2.20;;;;;;;9.21;100.00;100631.84;4995559;28;20532;-76
2024/03/13 06:21:41;;;;;;;6.55;2.72;;;;;;;9.14;100.00;100633.00;4958361;28;20042;-77
2024/03/13 06:24:06;;;;;;;6.18;3.40;;;;;;;9.13;100.00;100631.31;4975309;28;20106;-76
2024/03/13 06:26:33;;;;;;;4.90;2.70;;;;;;;9.10;100.00;100631.88;4979492;28;20042;-76
2024/03/13 06:31:43;;;;;;;5.28;2.60;;;;;;;9.07;100.00;100620.53;4997266;28;20390;-76
2024/03/13 06:34:08;;;;;;;4.22;3.08;;;;;;;9.03;100.00;100630.53;4959265;28;20026;-76
2024/03/13 06:36:36;;;;;;;6.43;2.97;;;;;;;8.98;100.00;100625.00;4969155;28;20098;-76
2024/03/13 06:39:03;;;;;;;6.03;2.80;;;;;;;8.92;100.00;100622.22;4966634;28;20026;-76
2024/03/13 06:41:28;;;;;;;7.50;3.15;;;;;;;8.89;100.00;100628.34;4971110;28;20038;-76
2024/03/13 06:43:54;;;;;;;5.70;2.97;;;;;;;8.83;100.00;100631.38;4961788;28;20077;-76
2024/03/13 06:46:20;;;;;;;7.13;3.08;;;;;;;8.83;100.00;100635.00;4957129;28;20048;-76
2024/03/13 06:48:46;;;;;;;8.65;3.17;;;;;;;8.77;100.00;100632.50;4985331;28;20030;-76
2024/03/13 06:51:14;;;;;;;9.98;2.75;;;;;;;8.74;100.00;100631.13;4961071;28;20447;-77
2024/03/13 06:53:40;;;;;;;5.38;2.72;;;;;;;8.76;100.00;100622.53;4994389;28;20518;-76
2024/03/13 06:56:05;;;;;;;8.77;3.65;;;;;;;8.72;100.00;100620.34;4961790;28;20034;-76
2024/03/13 06:58:31;;;;;;;6.05;3.15;;;;;;;8.70;100.00;100621.72;4977889;28;20026;-77
2024/03/13 07:00:57;;;;;;;6.78;2.90;;;;;;;8.71;100.00;100615.88;4977812;28;20050;-76
2024/03/13 07:03:23;;;;;;;7.85;2.90;;;;;;;8.75;100.00;100618.09;4958484;28;20046;-76
2024/03/13 07:05:52;;;;;;;8.23;3.22;;;;;;;8.77;100.00;100605.63;4938089;28;20376;-76
2024/03/13 07:08:18;;;;;;;5.75;3.40;;;;;;;8.81;100.00;100614.25;4980924;28;20018;-76
2024/03/13 07:10:44;;;;;;;7.80;3.30;;;;;;;8.84;100.00;100613.66;4997506;28;20034;-77
2024/03/13 07:13:10;;;;;;;9.68;4.38;;;;;;;8.90;100.00;100607.00;4964741;28;20126;-77
2024/03/13 07:15:39;;;;;;;9.13;3.20;;;;;;;8.93;100.00;100603.66;4975220;28;20057;-77
2024/03/13 07:18:04;;;;;;;9.75;3.53;;;;;;;8.99;100.00;100605.31;4992984;28;20094;-77
2024/03/13 07:20:30;;;;;;;7.53;2.92;;;;;;;9.05;100.00;100604.19;4956161;28;20623;-77
2024/03/13 07:22:55;;;;;;;6.97;3.28;;;;;;;9.10;100.00;100601.41;4947927;28;20401;-77
2024/03/13 07:25:21;;;;;;;6.90;3.13;;;;;;;9.17;100.00;100604.72;4965032;28;20034;-76
2024/03/13 07:27:47;;;;;;;10.73;2.75;;;;;;;9.23;100.00;100605.53;4977813;28;20509;-77
2024/03/13 07:30:14;;;;;;;8.32;2.65;;;;;;;9.29;100.00;100600.78;4961923;28;20105;-76
2024/03/13 07:32:41;;;;;;;6.07;3.17;;;;;;;9.38;100.00;100607.41;5005669;28;20026;-76
2024/03/13 07:35:10;;;;;;;8.50;2.67;;;;;;;9.45;100.00;100610.72;4953723;28;20106;-76
2024/03/13 07:37:36;;;;;;;8.55;3.10;;;;;;;9.53;100.00;100614.84;4972958;28;20037;-76
2024/03/13 07:40:02;;;;;;;7.45;2.97;;;;;;;9.61;100.00;100616.97;4981539;28;20034;-75
2024/03/13 07:42:28;;;;;;;10.00;2.58;;;;;;;9.69;100.00;100610.03;4967854;28;20029;-76
2024/03/13 07:44:56;;;;;;;7.03;2.97;;;;;;;9.76;100.00;100607.78;4974301;28;20031;-76
2024/03/13 07:47:22;;;;;;;13.07;3.70;;;;;;;9.84;100.00;100607.16;4982014;28;20030;-76
2024/03/13 07:49:47;;;;;;;9.02;3.20;;;;;;;9.91;100.00;100610.44;5002376;28;20537;-76
2024/03/13 07:52:14;;;;;;;8.63;3.17;;;;;;;9.99;100.00;100609.84;5006785;28;20102;-76
2024/03/13 07:54:39;;;;;;;9.80;2.83;;;;;;;10.05;100.00;100613.41;4989806;28;20434;-76
2024/03/13 07:57:05;;;;;;;9.02;2.97;;;;;;;10.09;100.00;100611.72;4983644;28;20033;-76
2024/03/13 07:59:30;;;;;;;8.10;3.25;;;;;;;10.18;100.00;100617.47;4979258;28;20027;-76
2024/03/13 08:01:56;;;;;;;6.15;2.40;;;;;;;10.19;100.00;100613.59;4973985;28;20054;-76
2024/03/13 08:04:23;;;;;;;8.93;2.67;;;;;;;10.25;100.00;100617.97;4997522;28;20045;-76
2024/03/13 08:06:49;;;;;;;7.20;2.78;;;;;;;10.31;100.00;100624.34;5010172;28;20034;-75
2024/03/13 08:09:15;;;;;;;8.35;2.47;;;;;;;10.36;100.00;100629.84;4975413;28;20405;-75
2024/03/13 08:11:40;;;;;;;9.10;2.78;;;;;;;10.40;100.00;100619.84;4971033;28;20112;-75
2024/03/13 08:14:06;;;;;;;7.43;2.25;;;;;;;10.42;100.00;100629.53;4972933;28;20498;-76
2024/03/13 08:16:32;;;;;;;10.95;2.47;;;;;;;10.51;100.00;100616.69;4997021;28;20437;-75
2024/03/13 08:18:58;;;;;;;8.75;3.15;;;;;;;10.55;100.00;100630.81;5013231;28;20041;-75
2024/03/13 08:21:24;;;;;;;9.25;2.55;;;;;;;10.59;100.00;100623.56;4967702;28;20442;-76
2024/03/13 08:23:50;;;;;;;7.80;2.40;;;;;;;10.67;100.00;100628.50;4978154;28;20040;-76
2024/03/13 08:26:18;;;;;;;7.38;2.22;;;;;;;10.68;100.00;100632.91;4965576;28;20113;-76
2024/03/13 08:28:43;;;;;;;10.57;2.00;;;;;;;10.75;100.00;100632.56;4976812;28;20122;-76
2024/03/13 08:31:10;;;;;;;4.35;1.45;;;;;;;10.79;100.00;100627.28;5001771;28;20518;-76
2024/03/13 08:33:35;;;;;;;6.45;1.88;;;;;;;10.85;100.00;100628.88;4974714;28;20034;-76
2024/03/13 08:36:02;;;;;;;6.45;2.00;;;;;;;10.88;100.00;100620.78;4961110;28;20058;-76
2024/03/13 08:38:32;;;;;;;6.03;1.65;;;;;;;10.92;100.00;100621.88;4992972;28;20030;-76
2024/03/13 08:40:58;;;;;;;8.38;1.80;;;;;;;11.02;100.00;100617.31;5004577;28;20033;-76
2024/03/13 08:43:24;;;;;;;5.55;2.33;;;;;;;11.11;100.00;100618.31;4967304;28;20037;-76
2024/03/13 08:45:50;;;;;;;7.80;1.80;;;;;;;11.19;100.00;100624.03;4986026;28;20034;-76
2024/03/13 08:48:16;;;;;;;5.95;1.58;;;;;;;11.30;100.00;100623.94;4997396;28;20030;-76
2024/03/13 08:50:41;;;;;;;3.60;1.70;;;;;;;11.39;100.00;100619.38;4961011;28;20054;-76
2024/03/13 08:53:07;;;;;;;6.72;1.75;;;;;;;11.51;100.00;100621.75;5004809;28;20025;-76
2024/03/13 08:55:35;;;;;;;7.47;1.75;;;;;;;11.63;100.00;100624.91;4997509;28;20031;-76
2024/03/13 08:58:02;;;;;;;6.75;1.58;;;;;;;11.76;100.00;100626.16;4996525;28;20053;-76
2024/03/13 09:00:27;;;;;;;5.50;1.73;;;;;;;11.87;100.00;100624.06;4992220;28;20050;-76
2024/03/13 09:02:59;;;;;;;3.47;1.35;;;;;;;12.01;100.00;100625.00;4979998;28;20037;-76
2024/03/13 09:05:30;;;;;;;7.88;1.85;;;;;;;12.12;100.00;100623.72;4997442;28;20074;-76
2024/03/13 09:07:56;;;;;;;8.85;2.13;;;;;;;12.22;100.00;100617.97;4998387;28;20030;-76
2024/03/13 09:10:22;;;;;;;9.50;2.03;;;;;;;12.32;100.00;100616.16;5008697;28;20093;-76
2024/03/13 09:12:47;;;;;;;5.85;1.52;;;;;;;12.45;100.00;100615.38;4965993;28;20041;-76
2024/03/13 09:15:13;;;;;;;6.32;1.60;;;;;;;12.55;100.00;100618.00;4971808;28;20580;-76
2024/03/13 09:17:39;;;;;;;7.15;2.05;;;;;;;12.70;100.00;100609.38;5006752;28;20037;-76
2024/03/13 09:20:05;;;;;;;8.27;2.10;;;;;;;12.85;100.00;100611.06;4988171;28;20035;-75
2024/03/13 09:22:31;;;;;;;6.20;1.95;;;;;;;13.03;100.00;100616.84;4974128;28;20037;-75
2024/03/13 09:24:56;;;;;;;7.63;2.05;;;;;;;13.14;100.00;100613.56;4979217;28;20031;-75
2024/03/13 09:27:22;;;;;;;5.72;2.05;;;;;;;13.29;100.00;100625.56;4963967;28;20582;-76
2024/03/13 09:29:51;;;;;;;6.97;1.60;;;;;;;13.43;100.00;100620.00;4977293;28;20030;-76
2024/03/13 09:32:21;;;;;;;4.93;1.50;;;;;;;13.59;100.00;100624.94;4979828;28;20031;-76
2024/03/13 09:34:47;;;;;;;4.35;1.50;;;;;;;13.73;100.00;100624.09;4967456;28;20026;-76
2024/03/13 09:37:14;;;;;;;6.90;1.60;;;;;;;13.85;100.00;100618.81;4998465;28;20038;-76
2024/03/13 09:39:39;;;;;;;4.13;1.50;;;;;;;13.99;100.00;100608.44;4966605;28;20379;-76
2024/03/13 09:42:14;;;;;;;4.78;1.60;;;;;;;14.18;100.00;100615.81;5011541;28;20033;-76
2024/03/13 09:44:40;;;;;;;4.50;1.40;;;;;;;14.33;100.00;100617.44;4953998;28;20471;-76
2024/03/13 09:47:05;;;;;;;5.38;1.75;;;;;;;14.45;100.00;100623.28;4993634;28;20056;-76
2024/03/13 09:49:31;;;;;;;8.23;1.95;;;;;;;14.61;100.00;100612.56;4980351;28;20025;-76
2024/03/13 09:51:56;;;;;;;5.20;1.80;;;;;;;14.75;100.00;100613.31;4978907;28;20038;-76
2024/03/13 09:54:22;;;;;;;7.53;1.75;;;;;;;14.81;100.00;100617.63;4996481;28;20034;-76
2024/03/13 09:56:47;;;;;;;2.63;1.23;;;;;;;14.88;100.00;100615.22;4994639;28;20030;-76
2024/03/13 09:59:13;;;;;;;3.58;1.20;;;;;;;14.98;100.00;100622.47;4962888;28;20045;-76
2024/03/13 10:01:46;;;;;;;3.63;1.17;;;;;;;15.06;100.00;100618.91;4994339;28;20048;-76
2024/03/13 10:04:12;;;;;;;3.38;1.23;;;;;;;15.16;100.00;100626.22;4979466;28;20038;-76
2024/03/13 10:06:40;;;;;;;4.78;1.23;;;;;;;15.26;100.00;100627.88;4997312;28;20048;-76
2024/03/13 10:09:12;;;;;;;5.80;1.10;;;;;;;15.31;100.00;100622.97;4997563;28;20046;-76
2024/03/13 10:11:46;;;;;;;5.38;1.20;;;;;;;15.42;100.00;100627.13;4995238;28;20030;-76
2024/03/13 10:14:12;;;;;;;4.18;1.00;;;;;;;15.50;100.00;100627.50;4962635;28;20134;-76
2024/03/13 10:16:39;;;;;;;4.40;0.93;;;;;;;15.55;100.00;100625.38;5000655;28;20053;-76
2024/03/13 10:19:05;;;;;;;1.67;0.70;;;;;;;15.61;100.00;100621.25;5002037;28;20110;-76
2024/03/13 10:21:30;;;;;;;7.15;0.88;;;;;;;15.71;100.00;100619.31;5007816;28;20038;-76
2024/03/13 10:23:56;;;;;;;2.20;0.60;;;;;;;15.82;100.00;100626.25;4978849;28;20034;-76
2024/03/13 10:26:21;;;;;;;5.93;0.80;;;;;;;15.92;100.00;100619.53;4989699;28;20161;-76
2024/03/13 10:28:50;;;;;;;2.38;0.77;;;;;;;16.07;100.00;100613.44;5007551;28;20045;-76
2024/03/13 10:31:18;;;;;;;2.92;0.70;;;;;;;16.19;100.00;100618.41;4984937;28;20115;-76
2024/03/13 10:33:44;;;;;;;3.25;0.80;;;;;;;16.31;100.00;100610.97;4969095;28;20037;-76
2024/03/13 10:36:11;;;;;;;3.45;0.70;;;;;;;16.47;100.00;100610.50;4991103;28;20026;-76
2024/03/13 10:38:37;;;;;;;3.05;0.70;;;;;;;16.60;100.00;100605.84;4997510;28;20034;-73
2024/03/13 10:41:03;;;;;;;4.93;0.70;;;;;;;16.73;100.00;100600.03;4969253;28;20117;-73
2024/03/13 10:43:31;;;;;;;2.75;0.93;;;;;;;16.88;100.00;100597.88;4952061;28;20110;-74
2024/03/13 10:45:57;;;;;;;5.30;0.90;;;;;;;16.99;100.00;100599.16;4955578;28;20074;-73
2024/03/13 10:48:23;;;;;;;4.28;0.70;;;;;;;17.10;100.00;100586.41;4965788;28;20039;-76
2024/03/13 10:50:49;;;;;;;2.42;0.70;;;;;;;17.26;100.00;100599.91;5007652;28;20038;-76
2024/03/13 10:53:15;;;;;;;4.35;0.60;;;;;;;17.37;100.00;100599.19;4995292;28;20030;-76
2024/03/13 10:55:40;;;;;;;2.90;0.88;;;;;;;17.49;100.00;100604.06;5006200;28;20072;-76
2024/03/13 10:58:14;;;;;;;5.00;0.90;;;;;;;17.61;100.00;100601.38;4996928;28;20041;-76
2024/03/13 11:00:40;;;;;;;2.33;0.52;;;;;;;17.72;100.00;100601.81;4973351;28;20050;-76
2024/03/13 11:03:06;;;;;;;2.95;0.70;;;;;;;17.81;100.00;100601.78;4961578;28;20085;-76
2024/03/13 11:05:32;;;;;;;4.70;0.82;;;;;;;17.86;100.00;100601.59;4994095;28;20042;-74
2024/03/13 11:07:59;;;;;;;4.90;0.80;;;;;;;17.94;100.00;100609.13;4963046;28;20411;-73
2024/03/13 11:10:25;;;;;;;6.72;0.90;;;;;;;18.00;100.00;100602.16;4974084;28;20110;-73
2024/03/13 11:12:50;;;;;;;2.55;0.52;;;;;;;18.09;100.00;100605.69;4972188;28;20494;-73
2024/03/13 11:15:28;;;;;;;3.13;0.70;;;;;;;18.13;100.00;100602.19;4970465;28;20061;-74
2024/03/13 11:17:56;;;;;;;2.38;0.60;;;;;;;18.15;100.00;100603.50;4963705;28;20035;-74
2024/03/13 11:20:23;;;;;;;3.10;0.70;;;;;;;18.15;100.00;100594.25;5004207;28;20032;-74
2024/03/13 11:23:00;;;;;;;2.78;0.80;;;;;;;18.20;100.00;100594.06;4996627;28;20037;-74
2024/03/13 11:25:25;;;;;;;2.13;0.60;;;;;;;18.25;100.00;100588.22;4970752;28;20038;-74
2024/03/13 11:27:54;;;;;;;5.72;1.13;;;;;;;18.27;100.00;100583.88;4984590;28;20037;-74
2024/03/13 11:30:20;;;;;;;4.95;1.08;;;;;;;18.32;100.00;100574.41;4968023;28;20022;-74
2024/03/13 11:32:48;;;;;;;5.07;1.00;;;;;;;18.43;100.00;100574.81;4958376;28;20046;-74
2024/03/13 11:35:18;;;;;;;4.63;1.05;;;;;;;18.47;100.00;100573.78;4970449;28;20039;-74
2024/03/13 11:37:44;;;;;;;3.22;0.70;;;;;;;18.51;100.00;100577.53;5008781;28;20026;-74
2024/03/13 11:40:10;;;;;;;3.50;0.80;;;;;;;18.57;100.00;100564.09;4997941;28;20109;-74
2024/03/13 11:42:36;;;;;;;3.65;0.80;;;;;;;18.59;100.00;100561.75;4977997;28;20042;-74